Time;durP1;ratioP1;P1;durP2;ratioP2;P2;SDS_P1;SDS_P2;PMS_P1;PMS_P2;Temp;Humidity;BMP_temperature;BMP_pressure;BME280_temperature;BME280_humidity;BME280_pressure;Samples;Min_cycle;Max_cycle;Signal;HPM_P1;HPM_P2
2023/05/20 00:01:59;;;;;;;14.30;4.30;;;12.50;99.90;;;;;;6271189;22;20058;-68
2023/05/20 00:04:28;;;;;;;8.43;3.72;;;12.50;99.90;;;;;;6269413;22;20026;-68
2023/05/20 00:06:54;;;;;;;10.88;5.07;;;12.40;99.90;;;;;;6269189;22;20582;-68
2023/05/20 00:09:20;;;;;;;8.00;3.70;;;12.40;99.90;;;;;;6270355;22;20023;-68
2023/05/20 00:11:45;;;;;;;9.40;4.40;;;12.40;99.90;;;;;;6272847;22;20149;-68
2023/05/20 00:14:11;;;;;;;9.55;4.10;;;12.40;99.90;;;;;;6272922;22;20024;-68
2023/05/20 00:16:37;;;;;;;7.15;4.13;;;12.40;99.90;;;;;;6272743;22;20016;-68
2023/05/20 00:19:03;;;;;;;6.13;3.50;;;12.30;99.90;;;;;;6271287;22;20451;-68
2023/05/20 00:21:28;;;;;;;6.05;4.05;;;12.30;99.90;;;;;;6273045;22;20012;-68
2023/05/20 00:23:55;;;;;;;8.00;3.85;;;12.30;99.90;;;;;;6271331;22;20482;-68
2023/05/20 00:26:21;;;;;;;9.82;5.25;;;12.30;99.90;;;;;;6272864;22;20028;-68
2023/05/20 00:28:47;;;;;;;9.73;4.07;;;12.30;99.90;;;;;;6272720;22;20015;-68
2023/05/20 00:31:13;;;;;;;7.95;3.90;;;12.30;99.90;;;;;;6272238;22;20028;-68
2023/05/20 00:33:38;;;;;;;7.65;3.63;;;12.30;99.90;;;;;;6273012;22;20016;-68
2023/05/20 00:36:05;;;;;;;15.25;4.55;;;12.30;99.90;;;;;;6271109;22;20015;-68
2023/05/20 00:38:30;;;;;;;7.28;4.20;;;12.30;99.90;;;;;;6273162;22;20335;-68
2023/05/20 00:40:56;;;;;;;8.77;4.00;;;12.30;99.90;;;;;;6270302;22;20024;-68
2023/05/20 00:43:24;;;;;;;9.55;4.80;;;12.20;99.90;;;;;;6271012;22;20134;-68
2023/05/20 00:45:51;;;;;;;6.40;3.92;;;12.30;99.90;;;;;;6270711;22;20461;-68
2023/05/20 00:48:17;;;;;;;7.32;4.60;;;12.20;99.90;;;;;;6272578;22;20023;-68
2023/05/20 00:50:43;;;;;;;5.30;3.70;;;12.30;99.90;;;;;;6272894;22;20011;-68
2023/05/20 00:53:09;;;;;;;10.23;4.22;;;12.30;99.90;;;;;;6271186;22;20085;-68
2023/05/20 00:55:35;;;;;;;6.72;3.88;;;12.20;99.90;;;;;;6271124;22;20571;-68
2023/05/20 00:58:00;;;;;;;7.45;4.25;;;12.20;99.90;;;;;;6271332;22;20062;-68
2023/05/20 01:00:26;;;;;;;10.70;4.10;;;12.20;99.90;;;;;;6270930;22;20019;-69
2023/05/20 01:02:54;;;;;;;10.25;3.60;;;12.20;99.90;;;;;;6270937;22;20062;-68
2023/05/20 01:05:19;;;;;;;7.80;3.78;;;12.20;99.90;;;;;;6270838;22;20019;-68
2023/05/20 01:07:45;;;;;;;12.00;3.97;;;12.20;99.90;;;;;;6270855;22;20043;-68
2023/05/20 01:10:11;;;;;;;5.53;3.92;;;12.20;99.90;;;;;;6271060;22;20069;-68
2023/05/20 01:12:47;;;;;;;7.63;3.88;;;12.20;99.90;;;;;;6273466;22;20030;-68
2023/05/20 01:15:15;;;;;;;8.02;3.95;;;12.20;99.90;;;;;;6272926;22;20024;-68
2023/05/20 01:17:49;;;;;;;8.95;3.90;;;12.20;99.90;;;;;;6270814;22;20534;-68
2023/05/20 01:20:16;;;;;;;8.45;4.28;;;12.20;99.90;;;;;;6244529;22;20095;-68
2023/05/20 01:22:52;;;;;;;8.38;4.72;;;12.20;99.90;;;;;;6271082;22;20332;-69
2023/05/20 01:25:18;;;;;;;6.53;3.92;;;12.20;99.90;;;;;;6272713;22;20019;-68
2023/05/20 01:27:44;;;;;;;7.35;4.22;;;12.20;99.90;;;;;;6272259;22;20114;-68
2023/05/20 01:30:10;;;;;;;5.93;3.60;;;12.20;99.90;;;;;;6270609;22;20106;-68
2023/05/20 01:32:46;;;;;;;5.93;3.55;;;12.20;99.90;;;;;;6272213;22;20077;-68
2023/05/20 01:35:14;;;;;;;5.30;3.80;;;12.20;99.90;;;;;;6245067;22;20024;-68
2023/05/20 01:37:40;;;;;;;12.30;4.25;;;12.20;99.90;;;;;;6272442;22;20012;-68
2023/05/20 01:40:07;;;;;;;7.72;3.95;;;12.20;99.90;;;;;;6272380;22;20441;-68
2023/05/20 01:42:35;;;;;;;6.18;3.95;;;12.20;99.90;;;;;;6271656;22;20016;-68
2023/05/20 01:45:02;;;;;;;8.55;4.18;;;12.20;99.90;;;;;;6272042;22;20541;-68
2023/05/20 01:47:27;;;;;;;5.95;3.47;;;12.20;99.90;;;;;;6272295;22;20051;-68
2023/05/20 01:49:53;;;;;;;6.28;3.75;;;12.20;99.90;;;;;;6272225;22;20440;-69
2023/05/20 01:52:22;;;;;;;5.22;3.50;;;12.10;99.90;;;;;;6272397;22;20015;-68
2023/05/20 01:54:50;;;;;;;8.10;4.40;;;12.10;99.90;;;;;;6272329;22;20035;-68
2023/05/20 01:57:22;;;;;;;9.15;3.65;;;12.20;99.90;;;;;;6269249;22;20126;-68
2023/05/20 01:59:48;;;;;;;7.65;3.53;;;12.10;99.90;;;;;;6271842;22;20099;-68
2023/05/20 02:02:15;;;;;;;8.50;3.80;;;12.10;99.90;;;;;;6271863;22;20051;-68
2023/05/20 02:04:46;;;;;;;6.75;3.92;;;12.20;99.90;;;;;;6270637;22;20019;-68
2023/05/20 02:07:13;;;;;;;4.70;3.50;;;12.10;99.90;;;;;;6270703;22;20201;-68
2023/05/20 02:09:39;;;;;;;11.38;4.57;;;12.10;99.90;;;;;;6271979;22;20024;-68
2023/05/20 02:12:06;;;;;;;7.57;3.72;;;12.10;99.90;;;;;;6271620;22;20350;-68
2023/05/20 02:14:31;;;;;;;10.32;4.05;;;12.10;99.90;;;;;;6271913;22;20020;-69
2023/05/20 02:16:57;;;;;;;5.68;3.47;;;12.10;99.90;;;;;;6270099;22;20118;-68
2023/05/20 02:19:23;;;;;;;10.48;5.40;;;12.10;99.90;;;;;;6270222;22;20086;-68
2023/05/20 02:21:49;;;;;;;7.97;3.40;;;12.10;99.90;;;;;;6269835;22;20093;-68
2023/05/20 02:24:15;;;;;;;5.95;4.15;;;12.10;99.90;;;;;;6272196;22;20011;-68
2023/05/20 02:26:41;;;;;;;6.20;3.72;;;12.10;99.90;;;;;;6272133;22;20027;-68
2023/05/20 02:29:07;;;;;;;4.75;3.20;;;12.10;99.90;;;;;;6271827;22;20510;-68
2023/05/20 02:31:33;;;;;;;12.10;4.57;;;12.10;99.90;;;;;;6271642;22;20026;-68
2023/05/20 02:33:58;;;;;;;9.52;3.67;;;12.10;99.90;;;;;;6244731;22;20027;-68
2023/05/20 02:36:24;;;;;;;5.13;3.30;;;12.10;99.90;;;;;;6272212;22;20019;-68
2023/05/20 02:38:50;;;;;;;7.10;4.57;;;12.10;99.90;;;;;;6270232;22;20047;-68
2023/05/20 02:41:15;;;;;;;6.25;3.53;;;12.00;99.90;;;;;;6270359;22;20316;-68
2023/05/20 02:43:43;;;;;;;9.23;3.05;;;12.10;99.90;;;;;;6271967;22;20023;-68
2023/05/20 02:46:09;;;;;;;8.07;3.90;;;12.10;99.90;;;;;;6271750;22;20012;-68
2023/05/20 02:48:35;;;;;;;7.80;4.03;;;12.10;99.90;;;;;;6271680;22;20019;-68
2023/05/20 02:51:01;;;;;;;5.40;3.10;;;12.10;99.90;;;;;;6269832;22;20039;-68
2023/05/20 02:53:26;;;;;;;8.65;3.85;;;12.10;99.90;;;;;;6271474;22;20015;-68
2023/05/20 02:55:52;;;;;;;4.70;3.45;;;12.00;99.90;;;;;;6269550;22;20024;-68
2023/05/20 02:58:18;;;;;;;5.70;3.25;;;12.00;99.90;;;;;;6269353;22;20503;-68
2023/05/20 03:00:43;;;;;;;7.72;3.60;;;12.00;99.90;;;;;;6271536;22;20082;-68
2023/05/20 03:03:09;;;;;;;6.25;3.35;;;12.00;99.90;;;;;;6269350;22;20027;-68
2023/05/20 03:05:36;;;;;;;6.85;3.58;;;12.00;99.90;;;;;;6271509;22;20107;-68
2023/05/20 03:08:08;;;;;;;6.40;3.92;;;12.00;99.90;;;;;;6269567;22;20024;-68
2023/05/20 03:10:35;;;;;;;8.73;4.30;;;12.00;99.90;;;;;;6271851;22;20008;-68
2023/05/20 03:13:01;;;;;;;5.18;3.03;;;12.00;99.90;;;;;;6269495;22;20470;-68
2023/05/20 03:15:26;;;;;;;4.78;3.30;;;12.00;99.90;;;;;;6269572;22;20023;-67
2023/05/20 03:17:52;;;;;;;16.35;4.38;;;11.90;99.90;;;;;;6271620;22;20075;-68
2023/05/20 03:20:19;;;;;;;6.13;3.28;;;11.90;99.90;;;;;;6271443;22;20105;-68
2023/05/20 03:22:45;;;;;;;6.43;3.20;;;11.90;99.90;;;;;;6271050;22;20074;-68
2023/05/20 03:25:10;;;;;;;7.25;3.40;;;11.90;99.90;;;;;;6271324;22;20019;-68
2023/05/20 03:27:36;;;;;;;4.20;3.42;;;11.80;99.90;;;;;;6271287;22;20023;-68
2023/05/20 03:30:03;;;;;;;5.97;3.33;;;11.80;99.90;;;;;;6270940;22;20043;-68
2023/05/20 03:32:29;;;;;;;6.10;3.63;;;11.80;99.90;;;;;;6269465;22;20073;-68
2023/05/20 03:34:56;;;;;;;7.57;3.25;;;11.80;99.90;;;;;;6269308;22;20107;-68
2023/05/20 03:37:22;;;;;;;8.38;3.30;;;11.80;99.90;;;;;;6271501;22;20027;-68
2023/05/20 03:39:48;;;;;;;7.25;3.30;;;11.80;99.90;;;;;;6269369;22;20019;-68
2023/05/20 03:42:14;;;;;;;7.60;3.40;;;11.80;99.90;;;;;;6269266;22;20512;-68
2023/05/20 03:44:40;;;;;;;6.70;3.30;;;11.80;99.90;;;;;;6272731;22;20011;-68
2023/05/20 03:47:06;;;;;;;7.43;3.70;;;11.80;99.90;;;;;;6272431;22;20103;-68
2023/05/20 03:49:31;;;;;;;6.63;3.08;;;11.80;99.90;;;;;;6273318;22;20019;-68
2023/05/20 03:51:57;;;;;;;10.20;3.25;;;11.70;99.90;;;;;;6273481;22;20351;-68
2023/05/20 03:54:23;;;;;;;5.63;3.08;;;11.70;99.90;;;;;;6273179;22;20020;-68
2023/05/20 03:56:48;;;;;;;4.70;3.10;;;11.80;99.90;;;;;;6273052;22;20098;-68
2023/05/20 03:59:14;;;;;;;3.95;3.03;;;11.80;99.90;;;;;;6273372;22;20541;-68
2023/05/20 04:01:40;;;;;;;5.78;2.53;;;11.80;99.90;;;;;;6270981;22;20023;-68
2023/05/20 04:04:06;;;;;;;4.60;3.17;;;11.70;99.90;;;;;;6271433;22;20019;-68
2023/05/20 04:06:32;;;;;;;6.43;3.33;;;11.70;99.90;;;;;;6271204;22;20348;-68
2023/05/20 04:08:57;;;;;;;3.92;2.65;;;11.80;99.90;;;;;;6271240;22;20026;-68
2023/05/20 04:11:23;;;;;;;5.60;3.30;;;11.80;99.90;;;;;;6272931;22;20091;-68
2023/05/20 04:13:49;;;;;;;5.00;3.42;;;11.70;99.90;;;;;;6271352;22;20482;-68
2023/05/20 04:16:14;;;;;;;7.32;2.78;;;11.70;99.90;;;;;;6271324;22;20023;-68
2023/05/20 04:18:40;;;;;;;3.88;3.40;;;11.70;99.90;;;;;;6272949;22;20812;-68
2023/05/20 04:21:07;;;;;;;7.68;2.78;;;11.70;99.90;;;;;;6271044;22;20031;-68
2023/05/20 04:23:32;;;;;;;4.88;3.03;;;11.70;99.90;;;;;;6271476;22;20026;-68
2023/05/20 04:26:01;;;;;;;5.68;3.25;;;11.80;99.90;;;;;;6271590;22;20016;-68
2023/05/20 04:28:30;;;;;;;4.63;3.10;;;11.80;99.90;;;;;;6271071;22;20107;-68
2023/05/20 04:31:03;;;;;;;4.22;2.92;;;11.80;99.90;;;;;;6270932;22;20622;-68
2023/05/20 04:33:29;;;;;;;5.10;2.65;;;11.80;99.90;;;;;;6272458;22;20095;-68
2023/05/20 04:35:59;;;;;;;3.58;2.92;;;11.90;99.90;;;;;;6272978;22;20024;-68
2023/05/20 04:38:28;;;;;;;3.30;2.92;;;11.90;99.90;;;;;;6270597;22;20054;-68
2023/05/20 04:40:58;;;;;;;5.53;3.17;;;12.00;99.90;;;;;;6273121;22;20110;-69
2023/05/20 04:43:24;;;;;;;8.57;3.20;;;12.00;99.90;;;;;;6271028;22;20091;-68
2023/05/20 04:45:54;;;;;;;5.60;2.85;;;12.20;99.90;;;;;;6273176;22;20049;-68
2023/05/20 04:48:21;;;;;;;2.80;2.47;;;12.30;99.90;;;;;;6272606;22;20458;-68
2023/05/20 04:50:48;;;;;;;6.13;3.25;;;12.40;99.90;;;;;;6270573;22;20020;-68
2023/05/20 04:53:17;;;;;;;4.88;3.33;;;12.60;99.90;;;;;;6272541;22;20039;-68
2023/05/20 04:55:47;;;;;;;3.75;2.53;;;12.60;99.90;;;;;;6270829;22;20023;-68
2023/05/20 04:58:16;;;;;;;5.45;2.67;;;12.70;99.90;;;;;;6272645;22;20081;-68
2023/05/20 05:00:45;;;;;;;3.03;2.30;;;12.80;99.90;;;;;;6270890;22;20129;-68
2023/05/20 05:03:14;;;;;;;4.10;2.65;;;12.80;99.90;;;;;;6272659;22;20023;-68
2023/05/20 05:05:41;;;;;;;4.38;2.38;;;12.90;99.90;;;;;;6270395;22;20470;-68
2023/05/20 05:08:07;;;;;;;6.70;3.25;;;12.90;99.90;;;;;;6270718;22;20022;-68
2023/05/20 05:10:33;;;;;;;4.30;2.50;;;12.90;99.90;;;;;;6272521;22;20042;-68
2023/05/20 05:13:02;;;;;;;5.38;2.25;;;13.00;99.90;;;;;;6272514;22;20051;-68
2023/05/20 05:15:28;;;;;;;2.65;2.40;;;13.00;99.90;;;;;;6270582;22;20024;-69
2023/05/20 05:17:54;;;;;;;7.50;2.55;;;13.10;99.90;;;;;;6270633;22;20023;-68
2023/05/20 05:20:20;;;;;;;4.03;2.28;;;13.10;99.90;;;;;;6270216;22;20149;-68
2023/05/20 05:22:46;;;;;;;2.33;1.90;;;13.20;99.90;;;;;;6270440;22;20024;-68
2023/05/20 05:25:12;;;;;;;4.55;2.65;;;13.30;99.90;;;;;;6272900;22;20031;-68
2023/05/20 05:27:38;;;;;;;3.45;2.30;;;13.50;99.90;;;;;;6272668;22;20145;-68
2023/05/20 05:30:06;;;;;;;4.78;2.35;;;13.50;99.90;;;;;;6270428;22;20347;-68
2023/05/20 05:32:32;;;;;;;3.72;2.22;;;13.50;99.90;;;;;;6272406;22;20090;-68
2023/05/20 05:34:58;;;;;;;5.60;2.40;;;13.70;99.90;;;;;;6270443;22;20031;-68
2023/05/20 05:37:24;;;;;;;2.97;1.85;;;13.80;99.90;;;;;;6272643;22;20011;-68
2023/05/20 05:39:50;;;;;;;6.10;2.40;;;13.80;99.90;;;;;;6244697;22;20099;-69
2023/05/20 05:42:15;;;;;;;3.17;2.03;;;13.80;99.90;;;;;;6272709;22;20126;-69
2023/05/20 05:44:41;;;;;;;2.15;1.70;;;13.80;99.90;;;;;;6272433;22;20020;-68
2023/05/20 05:47:07;;;;;;;2.72;1.92;;;13.80;99.90;;;;;;6245030;22;20016;-68
2023/05/20 05:49:33;;;;;;;3.80;1.65;;;13.90;99.90;;;;;;6270069;22;20035;-68
2023/05/20 05:51:59;;;;;;;5.60;2.28;;;13.90;99.90;;;;;;6269899;22;20023;-69
2023/05/20 05:54:25;;;;;;;2.78;1.92;;;13.90;99.90;;;;;;6272649;22;20023;-69
2023/05/20 05:56:51;;;;;;;4.75;1.95;;;14.00;99.90;;;;;;6272428;22;20022;-68
2023/05/20 05:59:17;;;;;;;3.97;2.03;;;14.00;99.90;;;;;;6271768;22;20016;-68
2023/05/20 06:01:43;;;;;;;4.88;2.00;;;14.10;99.90;;;;;;6269807;22;20020;-68
2023/05/20 06:04:09;;;;;;;3.25;2.03;;;14.10;99.90;;;;;;6271368;22;20016;-69
2023/05/20 06:06:35;;;;;;;3.95;1.80;;;14.10;99.90;;;;;;6271319;22;20038;-69
2023/05/20 06:09:00;;;;;;;2.22;1.83;;;14.10;99.90;;;;;;6272113;22;20020;-68
2023/05/20 06:11:26;;;;;;;4.85;2.10;;;14.10;99.90;;;;;;6270083;22;20027;-68
2023/05/20 06:13:52;;;;;;;3.05;1.85;;;14.20;99.90;;;;;;6269298;22;20016;-68
2023/05/20 06:16:17;;;;;;;2.40;1.80;;;14.20;99.90;;;;;;6270853;22;20031;-68
2023/05/20 06:18:45;;;;;;;2.47;1.70;;;14.40;99.90;;;;;;6269006;22;20027;-68
2023/05/20 06:21:11;;;;;;;2.33;2.10;;;14.30;99.90;;;;;;6271036;22;20019;-68
2023/05/20 06:23:37;;;;;;;3.25;1.80;;;14.30;99.90;;;;;;6269325;22;20077;-68
2023/05/20 06:26:02;;;;;;;4.47;1.83;;;14.30;99.90;;;;;;6271226;22;20031;-68
2023/05/20 06:28:29;;;;;;;2.40;1.80;;;14.30;99.90;;;;;;6271117;22;20019;-68
2023/05/20 06:30:56;;;;;;;4.63;2.00;;;14.40;99.90;;;;;;6269400;22;20022;-68
2023/05/20 06:33:26;;;;;;;3.25;2.05;;;14.50;99.90;;;;;;6271727;22;20008;-68
2023/05/20 06:35:55;;;;;;;3.85;1.90;;;14.50;99.90;;;;;;6271716;22;20016;-67
2023/05/20 06:38:21;;;;;;;2.22;1.80;;;14.50;99.90;;;;;;6270019;22;20023;-68
2023/05/20 06:40:48;;;;;;;4.60;1.65;;;14.60;99.90;;;;;;6271752;22;20073;-67
2023/05/20 06:43:14;;;;;;;2.13;1.77;;;14.80;99.90;;;;;;6271280;22;20106;-68
2023/05/20 06:45:40;;;;;;;8.85;1.80;;;14.70;99.90;;;;;;6271775;22;20070;-68
2023/05/20 06:48:06;;;;;;;3.17;1.42;;;14.70;99.90;;;;;;6271258;22;20019;-68
2023/05/20 06:50:32;;;;;;;1.92;1.60;;;14.80;99.90;;;;;;6244014;22;20020;-68
2023/05/20 06:52:58;;;;;;;5.63;2.00;;;14.90;99.90;;;;;;6271938;22;20024;-66
2023/05/20 06:55:25;;;;;;;6.63;2.30;;;14.90;99.90;;;;;;6271472;22;20019;-68
2023/05/20 06:57:50;;;;;;;4.68;2.15;;;15.00;99.90;;;;;;6269674;22;20118;-68
2023/05/20 07:00:16;;;;;;;2.00;1.63;;;15.00;99.90;;;;;;6271843;22;20445;-68
2023/05/20 07:02:42;;;;;;;4.13;1.83;;;15.00;99.90;;;;;;6269723;22;20333;-68
2023/05/20 07:05:09;;;;;;;2.70;1.88;;;15.10;99.90;;;;;;6269527;22;20030;-68
2023/05/20 07:07:35;;;;;;;7.20;2.03;;;15.20;99.90;;;;;;6269666;22;20034;-68
2023/05/20 07:10:00;;;;;;;5.28;1.92;;;15.30;99.90;;;;;;6244149;22;20016;-68
2023/05/20 07:12:26;;;;;;;2.38;1.90;;;15.20;99.90;;;;;;6271489;22;20030;-69
2023/05/20 07:14:52;;;;;;;2.40;2.00;;;15.30;99.90;;;;;;6271864;22;20055;-70
2023/05/20 07:17:17;;;;;;;3.42;2.00;;;15.30;99.90;;;;;;6269483;22;20473;-69
2023/05/20 07:19:43;;;;;;;2.50;1.70;;;15.50;99.90;;;;;;6269673;22;20105;-67
2023/05/20 07:22:09;;;;;;;4.60;2.40;;;15.60;99.90;;;;;;6271318;22;20106;-68
2023/05/20 07:24:36;;;;;;;5.25;1.90;;;15.60;99.90;;;;;;6271565;22;20023;-69
2023/05/20 07:27:01;;;;;;;4.88;2.35;;;15.60;99.90;;;;;;6268351;22;20024;-69
2023/05/20 07:29:27;;;;;;;3.10;2.38;;;15.60;99.90;;;;;;6270158;22;20038;-68
2023/05/20 07:31:53;;;;;;;5.43;2.30;;;15.60;99.90;;;;;;6267913;22;20369;-68
2023/05/20 07:34:19;;;;;;;4.18;2.10;;;15.60;99.90;;;;;;6269231;22;20099;-68
2023/05/20 07:36:45;;;;;;;2.72;2.13;;;15.80;99.90;;;;;;6271193;22;20051;-69
2023/05/20 07:39:10;;;;;;;3.28;2.28;;;15.80;99.90;;;;;;6244049;22;20251;-69
2023/05/20 07:41:37;;;;;;;2.80;2.20;;;15.80;99.90;;;;;;6269168;22;20110;-69
2023/05/20 07:44:10;;;;;;;3.00;2.03;;;15.90;99.90;;;;;;6271333;22;20020;-69
2023/05/20 07:46:36;;;;;;;2.90;2.50;;;16.00;99.90;;;;;;6270966;22;20027;-69
2023/05/20 07:49:03;;;;;;;3.45;2.20;;;16.00;99.90;;;;;;6271584;22;20016;-69
2023/05/20 07:51:29;;;;;;;2.65;2.08;;;15.90;99.90;;;;;;6269682;22;20123;-67
2023/05/20 07:53:54;;;;;;;3.80;2.53;;;16.00;99.90;;;;;;6269794;22;20055;-68
2023/05/20 07:56:20;;;;;;;8.32;2.63;;;16.10;99.90;;;;;;6270984;22;20115;-68
2023/05/20 07:58:59;;;;;;;3.97;2.33;;;16.20;99.90;;;;;;6269542;22;20034;-69
2023/05/20 08:01:26;;;;;;;4.03;2.20;;;16.30;99.90;;;;;;6269011;22;20023;-69
2023/05/20 08:03:52;;;;;;;3.10;2.30;;;16.30;99.90;;;;;;6269327;22;20444;-69
2023/05/20 08:06:23;;;;;;;4.75;2.72;;;16.40;99.90;;;;;;6271149;22;20027;-68
2023/05/20 08:08:48;;;;;;;3.97;2.28;;;16.40;99.90;;;;;;6269358;22;20355;-68
2023/05/20 08:11:14;;;;;;;3.67;2.80;;;16.50;99.90;;;;;;6269749;22;20020;-68
2023/05/20 08:13:40;;;;;;;3.25;2.35;;;16.50;99.90;;;;;;6271030;22;20098;-69
2023/05/20 08:16:06;;;;;;;3.45;1.98;;;16.50;99.90;;;;;;6269381;22;20030;-68
2023/05/20 08:18:33;;;;;;;2.75;1.90;;;16.60;99.90;;;;;;6269510;22;20410;-69
2023/05/20 08:21:00;;;;;;;3.05;2.03;;;16.70;99.90;;;;;;6243778;22;20027;-68
2023/05/20 08:23:25;;;;;;;5.95;2.20;;;16.80;99.90;;;;;;6243836;22;20128;-69
2023/05/20 08:25:51;;;;;;;4.25;2.15;;;16.80;99.90;;;;;;6269326;22;20102;-68
2023/05/20 08:28:17;;;;;;;4.13;1.90;;;16.90;99.90;;;;;;6269023;22;20440;-69
2023/05/20 08:30:43;;;;;;;4.90;2.20;;;16.90;99.90;;;;;;6272255;22;20020;-68
2023/05/20 08:33:09;;;;;;;5.38;2.25;;;16.90;99.90;;;;;;6271231;22;20046;-69
2023/05/20 08:35:38;;;;;;;4.07;1.90;;;16.90;99.90;;;;;;6273279;22;20020;-69
2023/05/20 08:38:04;;;;;;;5.07;1.85;;;17.00;99.90;;;;;;6273209;22;20022;-69
2023/05/20 08:40:30;;;;;;;3.17;2.10;;;17.00;99.90;;;;;;6273290;22;20047;-69
2023/05/20 08:42:57;;;;;;;4.75;2.40;;;17.10;99.90;;;;;;6272768;22;20020;-69
2023/05/20 08:45:27;;;;;;;3.72;2.17;;;17.10;99.90;;;;;;6269973;22;20081;-69
2023/05/20 08:47:53;;;;;;;3.50;1.85;;;17.20;99.90;;;;;;6246000;22;20213;-69
2023/05/20 08:50:19;;;;;;;3.83;2.33;;;17.30;99.90;;;;;;6271163;22;20022;-69
2023/05/20 08:52:47;;;;;;;4.65;2.22;;;17.30;99.90;;;;;;6271583;22;20050;-69
2023/05/20 08:55:37;;;;;;;2.97;1.95;;;17.30;99.90;;;;;;6271363;22;20050;-68
2023/05/20 08:58:02;;;;;;;3.13;1.75;;;17.40;99.90;;;;;;6251049;22;20051;-67
2023/05/20 09:00:28;;;;;;;2.10;1.90;;;17.20;99.90;;;;;;6271934;22;20030;-67
2023/05/20 09:02:55;;;;;;;4.63;1.98;;;17.50;99.90;;;;;;6272144;22;20024;-67
2023/05/20 09:05:22;;;;;;;2.95;1.83;;;17.40;99.90;;;;;;6270208;22;20028;-69
2023/05/20 09:07:48;;;;;;;2.97;1.80;;;17.50;99.90;;;;;;6272503;22;20322;-69
2023/05/20 09:10:14;;;;;;;3.92;2.05;;;17.60;99.90;;;;;;6272764;22;20027;-70
2023/05/20 09:12:39;;;;;;;2.00;1.58;;;17.70;99.90;;;;;;6270772;22;20051;-72
2023/05/20 09:15:06;;;;;;;4.75;2.85;;;17.80;99.90;;;;;;6272486;22;20012;-70
2023/05/20 09:17:35;;;;;;;2.92;1.80;;;17.80;99.90;;;;;;6270617;22;20355;-70
2023/05/20 09:20:00;;;;;;;2.78;2.28;;;17.80;99.90;;;;;;6270643;22;20027;-70
2023/05/20 09:22:28;;;;;;;3.17;2.10;;;17.80;99.90;;;;;;6270740;22;20082;-70
2023/05/20 09:24:54;;;;;;;2.33;1.67;;;18.00;99.90;;;;;;6272523;22;20026;-70
2023/05/20 09:27:21;;;;;;;4.10;2.50;;;18.00;99.90;;;;;;6272444;22;20070;-70
2023/05/20 09:29:50;;;;;;;2.28;1.80;;;18.00;99.90;;;;;;6270384;22;20528;-70
2023/05/20 09:32:18;;;;;;;2.45;1.70;;;18.10;99.90;;;;;;6270129;22;20031;-70
2023/05/20 09:34:46;;;;;;;4.03;1.83;;;18.00;99.90;;;;;;6272243;22;20024;-70
2023/05/20 09:37:16;;;;;;;3.38;1.77;;;18.10;99.90;;;;;;6270013;22;20085;-70
2023/05/20 09:39:59;;;;;;;2.63;1.70;;;18.20;99.90;;;;;;6272732;22;20007;-70
2023/05/20 09:42:30;;;;;;;3.30;1.90;;;18.20;99.90;;;;;;6271339;22;20024;-70
2023/05/20 09:44:57;;;;;;;2.90;1.88;;;18.20;99.90;;;;;;6272011;22;20073;-70
2023/05/20 09:47:26;;;;;;;4.18;2.00;;;18.00;99.90;;;;;;6272377;22;20116;-70
2023/05/20 09:49:52;;;;;;;4.28;2.25;;;18.10;99.90;;;;;;6270265;22;20027;-70
2023/05/20 09:52:19;;;;;;;2.20;1.50;;;18.10;99.90;;;;;;6271857;22;20061;-70
2023/05/20 09:54:47;;;;;;;2.90;1.77;;;18.10;99.90;;;;;;6270721;22;20054;-70
2023/05/20 09:57:12;;;;;;;4.10;1.77;;;18.10;99.90;;;;;;6270023;22;20016;-71
2023/05/20 09:59:40;;;;;;;5.30;2.35;;;18.10;99.90;;;;;;6270157;22;20024;-71
2023/05/20 10:02:06;;;;;;;4.85;2.10;;;18.00;99.90;;;;;;6269980;22;20024;-71
2023/05/20 10:04:34;;;;;;;3.53;1.90;;;17.90;99.90;;;;;;6272040;22;20019;-71
2023/05/20 10:07:27;;;;;;;4.32;1.83;;;17.90;99.90;;;;;;6270106;22;20340;-70
2023/05/20 10:09:58;;;;;;;;;;;18.00;99.90;;;;;;6272146;22;20393;-70
2023/05/20 10:13:02;;;;;;;2.95;1.90;;;18.10;99.90;;;;;;6272009;22;19942;-68
2023/05/20 10:15:38;;;;;;;3.17;1.63;;;18.10;99.90;;;;;;6170232;22;20059;-70
2023/05/20 10:18:29;;;;;;;3.15;1.83;;;17.90;99.90;;;;;;6270013;22;20026;-70
2023/05/20 10:20:55;;;;;;;3.92;2.03;;;17.80;99.90;;;;;;6244655;22;20035;-70
2023/05/20 10:23:28;;;;;;;4.15;1.98;;;17.80;99.90;;;;;;6270449;22;20095;-70
2023/05/20 10:25:54;;;;;;;4.13;1.80;;;17.90;99.90;;;;;;6244819;22;20408;-70
2023/05/20 10:28:36;;;;;;;3.50;1.70;;;18.00;99.90;;;;;;6271968;22;20431;-70
2023/05/20 10:31:13;;;;;;;3.55;1.83;;;18.00;99.90;;;;;;6271845;22;20011;-70
2023/05/20 10:33:44;;;;;;;3.97;2.00;;;17.90;99.90;;;;;;6270405;22;20022;-70
2023/05/20 10:36:20;;;;;;;7.25;1.95;;;17.90;99.90;;;;;;6271667;22;20012;-71
2023/05/20 10:38:59;;;;;;;4.63;1.63;;;17.90;99.90;;;;;;6273030;22;20396;-66
2023/05/20 10:41:27;;;;;;;3.67;1.77;;;18.00;99.90;;;;;;6270199;22;20036;-66
2023/05/20 10:44:03;;;;;;;2.95;1.50;;;18.00;99.90;;;;;;6271777;22;20026;-67
2023/05/20 10:46:29;;;;;;;3.17;1.42;;;18.20;99.90;;;;;;6272058;22;20020;-66
2023/05/20 10:48:56;;;;;;;1.95;1.35;;;18.10;99.90;;;;;;6269833;22;20069;-67
2023/05/20 11:10:23;;;;;;;1.30;1.20;;;18.60;99.90;;;;;;6301207;22;20031;-66
2023/05/20 11:12:49;;;;;;;2.75;1.45;;;18.50;99.20;;;;;;6302042;22;20027;-67
2023/05/20 11:15:14;;;;;;;2.67;1.70;;;18.50;99.30;;;;;;6302685;22;20081;-67
2023/05/20 11:17:54;;;;;;;2.35;1.52;;;18.60;99.30;;;;;;6249193;22;20367;-69
2023/05/20 11:20:21;;;;;;;4.45;1.83;;;18.70;99.90;;;;;;6274619;22;20339;-68
2023/05/20 11:22:50;;;;;;;5.07;1.73;;;18.70;99.80;;;;;;6249564;22;20396;-67
2023/05/20 11:25:17;;;;;;;3.13;1.60;;;18.60;99.30;;;;;;6302486;22;20433;-68
2023/05/20 11:27:43;;;;;;;2.78;1.60;;;18.60;99.60;;;;;;6302521;22;20081;-68
2023/05/20 11:30:10;;;;;;;2.22;1.30;;;18.70;99.10;;;;;;6302247;22;20098;-68
2023/05/20 11:32:36;;;;;;;2.83;1.60;;;18.70;99.60;;;;;;6302341;22;20020;-69
2023/05/20 11:35:03;;;;;;;3.58;1.60;;;18.80;99.10;;;;;;6274553;22;20019;-68
2023/05/20 11:37:29;;;;;;;2.22;1.48;;;18.80;99.80;;;;;;6274547;22;20055;-69
2023/05/20 11:40:06;;;;;;;3.65;1.58;;;19.00;99.90;;;;;;6302484;22;20016;-68
2023/05/20 11:42:32;;;;;;;3.33;1.60;;;19.10;99.90;;;;;;6274812;22;20020;-68
2023/05/20 11:45:02;;;;;;;5.13;1.70;;;19.00;99.70;;;;;;6274972;22;20327;-68
2023/05/20 11:47:27;;;;;;;3.13;1.80;;;19.00;98.70;;;;;;6302639;22;20042;-68
2023/05/20 11:49:55;;;;;;;2.20;1.90;;;18.90;99.00;;;;;;6274872;22;20122;-68
2023/05/20 11:52:21;;;;;;;5.30;1.63;;;18.70;98.80;;;;;;6274567;22;20059;-68
2023/05/20 11:54:53;;;;;;;4.53;1.90;;;18.90;99.60;;;;;;6302165;22;20042;-68
2023/05/20 11:57:19;;;;;;;6.13;1.83;;;18.80;99.50;;;;;;6302496;22;20045;-67
2023/05/20 11:59:46;;;;;;;2.03;1.67;;;18.80;99.90;;;;;;6274850;22;20088;-68
2023/05/20 12:02:14;;;;;;;2.47;1.70;;;18.70;99.00;;;;;;6301751;22;20026;-68
2023/05/20 12:04:40;;;;;;;5.50;1.70;;;18.70;99.90;;;;;;6274742;22;20015;-68
2023/05/20 12:07:08;;;;;;;5.10;1.70;;;18.90;99.90;;;;;;6276346;22;20552;-68
2023/05/20 12:09:34;;;;;;;3.30;1.52;;;19.00;99.10;;;;;;6276416;22;20451;-68
2023/05/20 12:12:00;;;;;;;2.70;1.90;;;19.00;99.20;;;;;;6276160;22;20114;-68
2023/05/20 12:14:25;;;;;;;3.90;1.58;;;18.90;99.00;;;;;;6276361;22;20057;-68
2023/05/20 12:16:52;;;;;;;8.15;1.92;;;18.80;99.10;;;;;;6276292;22;20023;-68
2023/05/20 12:19:20;;;;;;;1.40;1.25;;;19.00;99.60;;;;;;6276340;22;20451;-69
2023/05/20 12:21:46;;;;;;;3.00;1.75;;;19.10;98.80;;;;;;6276011;22;20106;-68
2023/05/20 12:24:12;;;;;;;4.32;1.90;;;19.10;98.10;;;;;;6304080;22;20058;-68
2023/05/20 12:26:39;;;;;;;7.95;2.03;;;19.10;98.10;;;;;;6250890;22;20023;-68
2023/05/20 12:29:04;;;;;;;3.60;1.75;;;19.30;98.70;;;;;;6302861;22;20022;-68
2023/05/20 12:31:30;;;;;;;2.88;1.67;;;19.30;98.10;;;;;;6276266;22;20027;-69
2023/05/20 12:33:56;;;;;;;5.05;1.70;;;19.30;98.40;;;;;;6276233;22;20024;-68
2023/05/20 12:36:22;;;;;;;3.13;1.48;;;19.30;98.10;;;;;;6303397;22;20082;-68
2023/05/20 12:38:47;;;;;;;1.63;1.27;;;19.20;98.50;;;;;;6303810;22;20023;-69
2023/05/20 12:41:13;;;;;;;2.20;1.55;;;19.20;98.90;;;;;;6250589;22;20644;-68
2023/05/20 12:43:39;;;;;;;2.35;1.65;;;19.30;98.60;;;;;;6275998;22;20098;-69
2023/05/20 12:46:05;;;;;;;2.90;1.70;;;19.20;98.30;;;;;;6276035;22;20026;-69
2023/05/20 12:48:30;;;;;;;3.60;1.63;;;19.20;98.40;;;;;;6276095;22;20555;-69
2023/05/20 12:50:56;;;;;;;4.65;2.22;;;19.20;98.30;;;;;;6250164;22;20031;-69
2023/05/20 12:53:22;;;;;;;3.05;1.70;;;19.20;98.80;;;;;;6276098;22;20015;-69
2023/05/20 12:55:47;;;;;;;3.35;1.40;;;19.10;97.80;;;;;;6304123;22;20471;-69
2023/05/20 12:58:13;;;;;;;3.45;1.75;;;19.30;98.50;;;;;;6303756;22;20015;-68
2023/05/20 13:00:39;;;;;;;3.17;1.30;;;19.30;98.40;;;;;;6303705;22;20026;-69
2023/05/20 13:03:05;;;;;;;4.20;1.45;;;19.50;98.70;;;;;;6276099;22;20482;-69
2023/05/20 13:05:31;;;;;;;12.15;2.33;;;19.60;98.10;;;;;;6275759;22;20383;-69